Terminal Aerodrome Forecast
Issued by NWS

Home | Current Version | Previous Version | Graphics & Text | Print | Product List | Glossary On
Versions: 1 2 3 4 5 6 7 8 9 10 11 12 13 14 15 16 17
425
FTUS42 KMHX 162327
TAFPGV
TAF
KPGV 162327Z 1700/1724 VRB03KT P6SM BKN020
     FM170200 00000KT 4SM BR BKN015 BKN026
     FM171100 00000KT P6SM BKN015 BKN026
     FM171800 22006KT P6SM BKN015
     FM171900 22006KT P6SM BKN100
      AMD LTD TO CLD VIS AND WIND=

USA.gov is the U.S. government's official web portal to all federal, state and local government web resources and services.